createdAt,value
2017-05-25T00:00:07.545Z,81.71
2017-05-25T00:01:08.114Z,81.77
2017-05-25T00:02:07.760Z,81.90
2017-05-25T00:03:08.489Z,81.84
2017-05-25T00:04:08.034Z,81.91
2017-05-25T00:05:07.696Z,81.76
2017-05-25T00:06:08.353Z,81.57
2017-05-25T00:07:08.254Z,81.52
2017-05-25T00:08:07.694Z,81.59
2017-05-25T00:09:08.292Z,81.58
2017-05-25T00:10:07.904Z,81.63
2017-05-25T00:11:07.587Z,81.61
2017-05-25T00:12:08.263Z,81.46
2017-05-25T00:13:07.907Z,81.54
2017-05-25T00:14:07.509Z,81.57
2017-05-25T00:15:08.334Z,81.66
2017-05-25T00:16:07.879Z,81.88
2017-05-25T00:17:07.621Z,81.95
2017-05-25T00:18:08.372Z,82.09
2017-05-25T00:19:08.008Z,82.11
2017-05-25T00:20:07.607Z,82.08
2017-05-25T00:21:08.268Z,82.10
2017-05-25T00:22:07.867Z,82.16
2017-05-25T00:23:07.628Z,82.17
2017-05-25T00:24:08.220Z,81.98
2017-05-25T00:25:07.793Z,81.92
2017-05-25T00:26:07.495Z,81.95
2017-05-25T00:27:08.086Z,81.79
2017-05-25T00:28:07.845Z,81.84
2017-05-25T00:29:07.410Z,81.81
2017-05-25T00:30:08.115Z,81.94
2017-05-25T00:31:07.697Z,81.84
2017-05-25T00:32:08.387Z,82.04
2017-05-25T00:33:08.029Z,82.16
2017-05-25T00:34:07.650Z,82.07
2017-05-25T00:35:08.307Z,81.85
2017-05-25T00:36:07.922Z,81.61
2017-05-25T00:37:07.570Z,81.76
2017-05-25T00:38:08.267Z,81.75
2017-05-25T00:39:07.898Z,81.80
2017-05-25T00:40:07.483Z,81.55
2017-05-25T00:41:08.163Z,81.51
2017-05-25T00:42:07.782Z,81.75
2017-05-25T00:43:07.470Z,81.72
2017-05-25T00:44:08.055Z,81.78
2017-05-25T00:45:07.852Z,81.80
2017-05-25T00:46:08.381Z,81.85
2017-05-25T00:47:08.002Z,81.81
2017-05-25T00:48:07.796Z,81.92
2017-05-25T00:49:08.401Z,81.88
2017-05-25T00:50:07.953Z,81.89
2017-05-25T00:51:07.637Z,81.99
2017-05-25T00:52:08.244Z,82.07
2017-05-25T00:53:07.933Z,82.07
2017-05-25T00:54:07.615Z,82.21
2017-05-25T00:55:08.163Z,82.19
2017-05-25T00:56:07.865Z,82.16
2017-05-25T00:57:07.450Z,82.18
2017-05-25T00:58:08.170Z,82.12
2017-05-25T00:59:07.820Z,81.97
2017-05-25T01:00:07.450Z,81.82
2017-05-25T01:01:08.075Z,81.80
2017-05-25T01:02:07.700Z,81.91
2017-05-25T01:03:08.461Z,82.12
2017-05-25T01:04:08.061Z,82.00
2017-05-25T01:05:07.760Z,81.86
2017-05-25T01:06:08.320Z,81.72
2017-05-25T01:07:08.018Z,81.48
2017-05-25T01:08:07.646Z,81.47
2017-05-25T01:09:08.356Z,81.67
2017-05-25T01:10:08.011Z,81.60
2017-05-25T01:11:07.545Z,81.50
2017-05-25T01:12:08.130Z,81.44
2017-05-25T01:13:07.832Z,81.58
2017-05-25T01:14:07.485Z,81.48
2017-05-25T01:15:08.151Z,81.40
2017-05-25T01:16:07.782Z,81.42
2017-05-25T01:17:07.505Z,81.56
2017-05-25T01:18:08.232Z,81.54
2017-05-25T01:19:07.923Z,81.51
2017-05-25T01:20:07.579Z,81.36
2017-05-25T01:21:08.199Z,81.33
2017-05-25T01:22:07.864Z,81.32
2017-05-25T01:23:07.515Z,81.45
2017-05-25T01:24:08.251Z,81.55
2017-05-25T01:25:07.847Z,81.49
2017-05-25T01:26:07.486Z,81.54
2017-05-25T01:27:08.161Z,81.53
2017-05-25T01:28:07.854Z,81.43
2017-05-25T01:29:07.516Z,81.60
2017-05-25T01:30:08.145Z,81.80
2017-05-25T01:31:07.812Z,81.79
2017-05-25T01:32:07.475Z,81.72
2017-05-25T01:33:08.095Z,81.84
2017-05-25T01:34:07.840Z,81.90
2017-05-25T01:35:07.420Z,81.79
2017-05-25T01:36:08.050Z,81.94
2017-05-25T01:37:07.766Z,82.01
2017-05-25T01:38:08.399Z,81.98
2017-05-25T01:39:08.125Z,81.98
2017-05-25T01:40:07.734Z,82.03
2017-05-25T01:41:08.349Z,82.00
2017-05-25T01:42:08.027Z,82.13
2017-05-25T01:43:07.637Z,81.86
2017-05-25T01:44:08.333Z,82.01
2017-05-25T01:45:08.014Z,81.72
2017-05-25T01:46:07.629Z,81.71
2017-05-25T01:47:08.262Z,81.71
2017-05-25T01:48:07.905Z,81.73
2017-05-25T01:49:07.595Z,81.76
2017-05-25T01:50:08.208Z,81.81
2017-05-25T01:51:07.854Z,82.09
2017-05-25T01:52:07.485Z,82.09
2017-05-25T01:53:08.148Z,82.09
2017-05-25T01:54:07.899Z,82.12
2017-05-25T01:55:07.475Z,81.91
2017-05-25T01:56:08.117Z,82.14
2017-05-25T01:57:07.711Z,82.27
2017-05-25T01:58:08.400Z,82.33
2017-05-25T01:59:08.050Z,82.37
2017-05-25T02:00:07.678Z,82.30
2017-05-25T02:01:08.360Z,82.23
2017-05-25T02:02:07.982Z,82.22
2017-05-25T02:03:07.600Z,82.31
2017-05-25T02:04:08.316Z,82.54
2017-05-25T02:05:07.903Z,82.42
2017-05-25T02:06:07.553Z,82.47
2017-05-25T02:07:08.161Z,82.52
2017-05-25T02:08:07.848Z,82.55
2017-05-25T02:09:07.531Z,82.39
2017-05-25T02:10:08.187Z,82.34
2017-05-25T02:11:07.802Z,82.27
2017-05-25T02:12:07.458Z,82.24
2017-05-25T02:13:15.592Z,82.25
2017-05-25T02:14:07.743Z,82.11
2017-05-25T02:15:08.450Z,82.44
2017-05-25T02:16:07.997Z,83.00
2017-05-25T02:17:07.672Z,82.50
2017-05-25T02:18:07.466Z,82.43
2017-05-25T02:19:08.129Z,82.33
2017-05-25T02:20:07.805Z,82.34
2017-05-25T02:21:07.470Z,82.42
2017-05-25T02:22:08.070Z,82.57
2017-05-25T02:23:07.699Z,82.39
2017-05-25T02:24:08.368Z,82.34
2017-05-25T02:25:08.079Z,82.47
2017-05-25T02:26:07.753Z,82.47
2017-05-25T02:27:08.259Z,82.52
2017-05-25T02:28:07.972Z,82.55
2017-05-25T02:29:07.599Z,82.56
2017-05-25T02:30:08.241Z,82.57
2017-05-25T02:31:07.956Z,82.56
2017-05-25T02:32:07.551Z,82.70
2017-05-25T02:33:08.302Z,82.67
2017-05-25T02:34:07.886Z,82.57
2017-05-25T02:35:07.558Z,82.43
2017-05-25T02:36:08.293Z,82.43
2017-05-25T02:37:07.923Z,82.40
2017-05-25T02:38:07.854Z,82.45
2017-05-25T02:39:07.507Z,82.30
2017-05-25T02:40:08.286Z,82.39
2017-05-25T02:41:07.919Z,82.61
2017-05-25T02:42:07.479Z,82.83
2017-05-25T02:43:08.178Z,82.86
2017-05-25T02:44:07.788Z,82.87
2017-05-25T02:45:07.599Z,83.12
2017-05-25T02:46:08.200Z,82.89
2017-05-25T02:47:08.009Z,82.87
2017-05-25T02:48:07.444Z,82.76
2017-05-25T02:49:08.148Z,82.66
2017-05-25T02:50:07.789Z,82.71
2017-05-25T02:51:07.480Z,82.81
2017-05-25T02:52:08.113Z,82.94
2017-05-25T02:53:07.678Z,82.95
2017-05-25T02:54:08.388Z,82.94
2017-05-25T02:55:08.088Z,83.04
2017-05-25T02:56:07.804Z,82.91
2017-05-25T02:57:08.375Z,82.87
2017-05-25T02:58:08.093Z,83.10
2017-05-25T02:59:07.706Z,82.95
2017-05-25T03:00:08.302Z,82.88
2017-05-25T03:01:08.019Z,82.89
2017-05-25T03:02:07.618Z,83.19
2017-05-25T03:03:08.281Z,83.18
2017-05-25T03:04:07.929Z,83.17
2017-05-25T03:05:07.576Z,83.23
2017-05-25T03:06:08.288Z,83.30
2017-05-25T03:07:07.941Z,83.26
2017-05-25T03:08:07.544Z,83.16
2017-05-25T03:09:08.190Z,83.27
2017-05-25T03:10:07.936Z,83.27
2017-05-25T03:11:07.556Z,83.06
2017-05-25T03:12:08.194Z,83.08
2017-05-25T03:13:07.827Z,83.32
2017-05-25T03:14:07.552Z,83.55
2017-05-25T03:15:08.136Z,83.59
2017-05-25T03:16:07.766Z,83.55
2017-05-25T03:17:07.564Z,83.59
2017-05-25T03:18:08.224Z,83.40
2017-05-25T03:19:07.857Z,83.21
2017-05-25T03:20:07.494Z,82.96
2017-05-25T03:21:08.272Z,82.61
2017-05-25T03:22:07.837Z,82.28
2017-05-25T03:23:07.495Z,82.36
2017-05-25T03:24:08.065Z,81.55
2017-05-25T03:25:07.729Z,81.66
2017-05-25T03:26:08.390Z,81.52
2017-05-25T03:27:07.965Z,81.21
2017-05-25T03:28:07.688Z,81.25
2017-05-25T03:29:08.305Z,81.50
2017-05-25T03:30:07.967Z,81.78
2017-05-25T03:31:07.680Z,82.34
2017-05-25T03:32:08.318Z,82.57
2017-05-25T03:33:08.051Z,82.74
2017-05-25T03:34:07.866Z,82.65
2017-05-25T03:35:07.556Z,82.76
2017-05-25T03:36:08.251Z,82.86
2017-05-25T03:37:07.880Z,82.88
2017-05-25T03:38:07.481Z,82.93
2017-05-25T03:39:08.161Z,82.96
2017-05-25T03:40:07.822Z,82.97
2017-05-25T03:41:07.522Z,83.09
2017-05-25T03:42:08.149Z,83.22
2017-05-25T03:43:07.879Z,83.18
2017-05-25T03:44:07.470Z,83.11
2017-05-25T03:45:08.171Z,83.15
2017-05-25T03:46:07.884Z,83.27
2017-05-25T03:47:07.506Z,83.24
2017-05-25T03:48:08.112Z,83.09
2017-05-25T03:49:07.791Z,83.14
2017-05-25T03:50:07.443Z,83.25
2017-05-25T03:51:08.173Z,83.22
2017-05-25T03:52:07.750Z,83.12
2017-05-25T03:53:07.481Z,83.01
2017-05-25T03:54:08.082Z,82.97
2017-05-25T03:55:07.709Z,83.06
2017-05-25T03:56:08.397Z,83.04
2017-05-25T03:57:08.007Z,83.03
2017-05-25T03:58:07.656Z,82.87
2017-05-25T03:59:08.278Z,82.92
2017-05-25T04:00:07.924Z,82.81
2017-05-25T04:01:07.631Z,82.78
2017-05-25T04:02:08.250Z,82.89
2017-05-25T04:03:07.924Z,82.99
2017-05-25T04:04:07.518Z,83.18
2017-05-25T04:05:08.191Z,83.01
2017-05-25T04:06:07.898Z,82.78
2017-05-25T04:07:07.506Z,82.71
2017-05-25T04:08:08.156Z,82.80
2017-05-25T04:09:07.797Z,82.64
2017-05-25T04:10:07.507Z,82.61
2017-05-25T04:11:08.106Z,82.56
2017-05-25T04:12:07.735Z,82.69
2017-05-25T04:13:08.393Z,82.77
2017-05-25T04:14:08.042Z,82.85
2017-05-25T04:15:07.802Z,82.88
2017-05-25T04:16:08.362Z,82.88
2017-05-25T04:17:08.064Z,82.53
2017-05-25T04:18:07.820Z,82.73
2017-05-25T04:19:07.455Z,82.89
2017-05-25T04:20:08.057Z,82.84
2017-05-25T04:21:07.842Z,82.93
2017-05-25T04:22:07.404Z,83.08
2017-05-25T04:23:08.030Z,83.01
2017-05-25T04:24:07.739Z,82.88
2017-05-25T04:25:11.066Z,82.77
2017-05-25T04:26:07.906Z,82.82
2017-05-25T04:27:07.551Z,82.39
2017-05-25T04:28:07.752Z,82.49
2017-05-25T04:29:07.388Z,82.59
2017-05-25T04:30:08.051Z,82.65
2017-05-25T04:31:07.823Z,82.66
2017-05-25T04:32:07.408Z,82.57
2017-05-25T04:33:08.061Z,82.34
2017-05-25T04:34:07.752Z,82.19
2017-05-25T04:35:08.320Z,82.16
2017-05-25T04:36:07.998Z,82.33
2017-05-25T04:37:07.647Z,82.34
2017-05-25T04:38:08.309Z,82.21
2017-05-25T04:39:07.988Z,82.03
2017-05-25T04:40:07.642Z,81.88
2017-05-25T04:41:08.363Z,81.92
2017-05-25T04:42:07.956Z,82.33
2017-05-25T04:43:07.557Z,82.33
2017-05-25T04:44:08.240Z,82.46
2017-05-25T04:45:08.014Z,82.19
2017-05-25T04:46:15.057Z,81.99
2017-05-25T04:47:08.231Z,82.06
2017-05-25T04:48:07.840Z,82.14
2017-05-25T04:49:07.472Z,82.35
2017-05-25T04:50:08.122Z,82.42
2017-05-25T04:51:07.847Z,82.51
2017-05-25T04:52:07.476Z,82.73
2017-05-25T04:53:08.149Z,82.85
2017-05-25T04:54:07.773Z,82.83
2017-05-25T04:55:07.368Z,82.81
2017-05-25T04:56:08.069Z,82.85
2017-05-25T04:57:07.749Z,82.99
2017-05-25T04:58:07.908Z,82.95
2017-05-25T04:59:07.507Z,82.83
2017-05-25T05:00:08.220Z,82.80
2017-05-25T05:01:07.925Z,82.77
2017-05-25T05:02:07.518Z,82.78
2017-05-25T05:03:08.215Z,82.94
2017-05-25T05:04:07.869Z,82.89
2017-05-25T05:05:07.469Z,82.74
2017-05-25T05:06:08.238Z,82.62
2017-05-25T05:07:07.826Z,82.54
2017-05-25T05:08:07.951Z,82.50
2017-05-25T05:09:07.608Z,82.37
2017-05-25T05:10:08.280Z,82.32
2017-05-25T05:11:08.108Z,82.28
2017-05-25T05:12:07.589Z,82.35
2017-05-25T05:13:08.286Z,82.39
2017-05-25T05:14:07.913Z,82.20
2017-05-25T05:15:08.147Z,82.15
2017-05-25T05:16:07.750Z,82.08
2017-05-25T05:17:07.461Z,81.90
2017-05-25T05:18:08.217Z,82.06
2017-05-25T05:19:07.873Z,82.15
2017-05-25T05:20:07.552Z,82.12
2017-05-25T05:21:08.201Z,82.05
2017-05-25T05:22:07.790Z,81.70
2017-05-25T05:23:07.463Z,81.64
2017-05-25T05:24:08.052Z,81.66
2017-05-25T05:25:07.758Z,81.59
2017-05-25T05:26:07.409Z,81.72
2017-05-25T05:27:08.004Z,81.68
2017-05-25T05:28:07.675Z,81.80
2017-05-25T05:29:08.296Z,81.88
2017-05-25T05:30:07.921Z,81.78
2017-05-25T05:31:07.627Z,82.03
2017-05-25T05:32:08.270Z,81.88
2017-05-25T05:33:07.861Z,81.32
2017-05-25T05:34:07.537Z,81.35
2017-05-25T05:35:08.202Z,80.94
2017-05-25T05:36:07.967Z,81.13
2017-05-25T05:37:07.497Z,81.22
2017-05-25T05:38:08.113Z,80.94
2017-05-25T05:39:07.802Z,80.86
2017-05-25T05:40:14.927Z,80.62
2017-05-25T05:41:08.100Z,80.73
2017-05-25T05:42:07.753Z,80.72
2017-05-25T05:43:07.407Z,80.77
2017-05-25T05:44:08.058Z,80.39
2017-05-25T05:45:07.777Z,80.38
2017-05-25T05:46:08.379Z,80.39
2017-05-25T05:47:07.983Z,80.69
2017-05-25T05:48:07.618Z,80.74
2017-05-25T05:49:08.287Z,81.05
2017-05-25T05:50:07.883Z,81.21
2017-05-25T05:51:07.643Z,81.12
2017-05-25T05:52:08.277Z,80.44
2017-05-25T05:53:07.888Z,79.88
2017-05-25T05:54:07.548Z,79.89
2017-05-25T05:55:08.201Z,80.30
2017-05-25T05:56:07.982Z,80.30
2017-05-25T05:57:07.504Z,80.28
2017-05-25T05:58:07.623Z,80.37
2017-05-25T05:59:08.299Z,80.31
2017-05-25T06:00:07.923Z,80.08
2017-05-25T06:01:07.628Z,80.16
2017-05-25T06:02:08.240Z,80.06
2017-05-25T06:03:07.891Z,80.03
2017-05-25T06:04:07.577Z,79.87
2017-05-25T06:05:08.241Z,79.88
2017-05-25T06:06:07.899Z,79.96
2017-05-25T06:07:07.539Z,80.23
2017-05-25T06:08:08.124Z,80.18
2017-05-25T06:09:07.832Z,80.26
2017-05-25T06:10:07.484Z,80.77
2017-05-25T06:11:08.288Z,81.20
2017-05-25T06:12:07.790Z,81.31
2017-05-25T06:13:07.608Z,81.28
2017-05-25T06:14:08.214Z,81.59
2017-05-25T06:15:08.013Z,81.25
2017-05-25T06:16:07.481Z,81.02
2017-05-25T06:17:08.271Z,81.06
2017-05-25T06:18:07.978Z,81.12
2017-05-25T06:19:07.607Z,81.28
2017-05-25T06:20:08.288Z,81.17
2017-05-25T06:21:07.956Z,80.91
2017-05-25T06:22:07.731Z,80.83
2017-05-25T06:23:08.272Z,81.19
2017-05-25T06:24:07.922Z,80.66
2017-05-25T06:25:07.762Z,80.54
2017-05-25T06:26:07.504Z,80.55
2017-05-25T06:27:08.162Z,80.94
2017-05-25T06:28:07.810Z,81.16
2017-05-25T06:29:07.408Z,81.10
2017-05-25T06:30:08.083Z,81.16
2017-05-25T06:31:07.712Z,81.13
2017-05-25T06:32:08.403Z,81.12
2017-05-25T06:33:08.021Z,81.01
2017-05-25T06:34:07.717Z,80.92
2017-05-25T06:35:08.337Z,80.82
2017-05-25T06:36:07.999Z,80.86
2017-05-25T06:37:07.673Z,80.82
2017-05-25T06:38:08.243Z,80.93
2017-05-25T06:39:08.071Z,80.90
2017-05-25T06:40:07.695Z,80.95
2017-05-25T06:41:08.354Z,80.97
2017-05-25T06:42:08.002Z,81.08
2017-05-25T06:43:07.817Z,81.34
2017-05-25T06:44:08.350Z,81.42
2017-05-25T06:45:08.139Z,81.51
2017-05-25T06:46:07.660Z,81.30
2017-05-25T06:47:08.291Z,81.28
2017-05-25T06:48:07.887Z,81.17
2017-05-25T06:49:07.584Z,81.03
2017-05-25T06:50:08.234Z,81.41
2017-05-25T06:51:07.888Z,81.61
2017-05-25T06:52:07.661Z,81.93
2017-05-25T06:53:07.781Z,81.89
2017-05-25T06:54:07.399Z,82.03
2017-05-25T06:55:08.062Z,82.16
2017-05-25T06:56:07.740Z,82.46
2017-05-25T06:57:08.386Z,82.17
2017-05-25T06:58:07.956Z,81.90
2017-05-25T06:59:07.654Z,81.79
2017-05-25T07:00:08.326Z,81.48
2017-05-25T07:01:07.978Z,81.13
2017-05-25T07:02:07.645Z,81.02
2017-05-25T07:03:08.242Z,80.82
2017-05-25T07:04:07.939Z,80.27
2017-05-25T07:05:07.574Z,80.25
2017-05-25T07:06:08.250Z,80.34
2017-05-25T07:07:07.933Z,80.04
2017-05-25T07:08:07.562Z,80.09
2017-05-25T07:09:08.219Z,79.39
2017-05-25T07:10:07.884Z,79.31
2017-05-25T07:11:07.633Z,79.04
2017-05-25T07:12:08.277Z,79.25
2017-05-25T07:13:07.989Z,78.97
2017-05-25T07:14:07.742Z,79.17
2017-05-25T07:15:08.352Z,79.81
2017-05-25T07:16:07.946Z,80.13
2017-05-25T07:17:07.731Z,79.94
2017-05-25T07:18:07.370Z,79.67
2017-05-25T07:19:08.067Z,79.20
2017-05-25T07:20:07.704Z,79.01
2017-05-25T07:21:08.323Z,79.49
2017-05-25T07:22:08.031Z,79.76
2017-05-25T07:23:07.638Z,79.84
2017-05-25T07:24:08.269Z,79.00
2017-05-25T07:25:07.947Z,78.82
2017-05-25T07:26:07.679Z,78.54
2017-05-25T07:27:08.548Z,78.82
2017-05-25T07:28:08.093Z,79.13
2017-05-25T07:29:07.770Z,79.29
2017-05-25T07:30:07.461Z,79.89
2017-05-25T07:31:08.099Z,78.80
2017-05-25T07:32:07.648Z,78.82
2017-05-25T07:33:08.379Z,79.06
2017-05-25T07:34:07.948Z,79.08
2017-05-25T07:35:07.637Z,79.52
2017-05-25T07:36:08.336Z,79.86
2017-05-25T07:37:07.989Z,79.71
2017-05-25T07:38:07.733Z,80.04
2017-05-25T07:39:08.261Z,80.29
2017-05-25T07:40:07.959Z,79.07
2017-05-25T07:41:07.628Z,78.27
2017-05-25T07:42:08.458Z,78.57
2017-05-25T07:43:07.970Z,78.91
2017-05-25T07:44:07.622Z,78.69
2017-05-25T07:45:08.343Z,78.69
2017-05-25T07:46:07.889Z,78.83
2017-05-25T07:47:07.551Z,77.80
2017-05-25T07:48:08.242Z,76.73
2017-05-25T07:49:07.838Z,76.54
2017-05-25T07:50:07.691Z,76.51
2017-05-25T07:51:08.167Z,76.55
2017-05-25T07:52:07.797Z,76.57
2017-05-25T07:53:07.554Z,75.65
2017-05-25T07:54:08.103Z,75.62
2017-05-25T07:55:07.779Z,75.54
2017-05-25T07:56:07.522Z,75.46
2017-05-25T07:57:08.306Z,75.32
2017-05-25T07:58:07.929Z,74.34
2017-05-25T07:59:07.520Z,73.31
2017-05-25T08:00:08.143Z,72.75
2017-05-25T08:01:07.821Z,72.83
2017-05-25T08:02:07.468Z,72.69
2017-05-25T08:03:08.141Z,72.13
2017-05-25T08:04:07.822Z,71.48
2017-05-25T08:05:07.506Z,71.37
2017-05-25T08:06:08.047Z,71.43
2017-05-25T08:07:07.679Z,71.73
2017-05-25T08:08:08.393Z,72.15
2017-05-25T08:09:07.974Z,72.49
2017-05-25T08:10:07.668Z,72.12
2017-05-25T08:11:08.337Z,71.59
2017-05-25T08:12:07.954Z,71.14
2017-05-25T08:13:07.688Z,70.17
2017-05-25T08:14:08.298Z,69.64
2017-05-25T08:15:08.081Z,69.50
2017-05-25T08:16:07.618Z,69.49
2017-05-25T08:17:08.314Z,69.58
2017-05-25T08:18:08.084Z,69.61
2017-05-25T08:19:07.672Z,69.79
2017-05-25T08:20:08.386Z,69.89
2017-05-25T08:21:07.987Z,69.90
2017-05-25T08:22:07.678Z,69.62
2017-05-25T08:23:08.382Z,69.85
2017-05-25T08:24:07.996Z,69.22
2017-05-25T08:25:07.697Z,67.80
2017-05-25T08:26:08.356Z,66.75
2017-05-25T08:27:08.126Z,66.75
2017-05-25T08:28:07.674Z,66.59
2017-05-25T08:29:08.399Z,65.79
2017-05-25T08:30:07.952Z,64.74
2017-05-25T08:31:07.624Z,64.84
2017-05-25T08:32:08.510Z,65.31
2017-05-25T08:33:07.963Z,65.87
2017-05-25T08:34:07.569Z,66.40
2017-05-25T08:35:08.266Z,65.74
2017-05-25T08:36:07.921Z,65.58
2017-05-25T08:37:07.534Z,65.80
2017-05-25T08:38:08.322Z,65.54
2017-05-25T08:39:07.825Z,65.30
2017-05-25T08:40:07.474Z,65.74
2017-05-25T08:41:08.166Z,66.77
2017-05-25T08:42:07.969Z,66.30
2017-05-25T08:43:07.754Z,64.26
2017-05-25T08:44:08.315Z,61.79
2017-05-25T08:45:08.104Z,59.77
2017-05-25T08:46:07.619Z,58.67
2017-05-25T08:47:08.308Z,59.04
2017-05-25T08:48:07.979Z,58.80
2017-05-25T08:49:07.595Z,57.81
2017-05-25T08:50:08.263Z,58.45
2017-05-25T08:51:07.870Z,59.36
2017-05-25T08:52:07.503Z,59.93
2017-05-25T08:53:07.631Z,59.85
2017-05-25T08:54:08.217Z,60.20
2017-05-25T08:55:07.818Z,59.47
2017-05-25T08:56:07.625Z,59.83
2017-05-25T08:57:08.174Z,60.03
2017-05-25T08:58:08.330Z,59.08
2017-05-25T08:59:07.908Z,59.64
2017-05-25T09:00:07.558Z,60.17
2017-05-25T09:01:08.177Z,59.88
2017-05-25T09:02:07.827Z,59.58
2017-05-25T09:03:07.581Z,60.08
2017-05-25T09:04:08.200Z,59.91
2017-05-25T09:05:07.806Z,59.39
2017-05-25T09:06:07.450Z,59.48
2017-05-25T09:07:08.115Z,59.40
2017-05-25T09:08:07.916Z,58.98
2017-05-25T09:09:07.437Z,58.16
2017-05-25T09:10:08.120Z,58.62
2017-05-25T09:11:07.789Z,58.52
2017-05-25T09:12:08.394Z,58.80
2017-05-25T09:13:08.111Z,58.65
2017-05-25T09:14:07.711Z,59.11
2017-05-25T09:15:08.403Z,59.20
2017-05-25T09:16:07.986Z,58.95
2017-05-25T09:17:07.697Z,58.47
2017-05-25T09:18:07.562Z,58.18
2017-05-25T09:19:08.131Z,58.99
2017-05-25T09:20:07.781Z,58.86
2017-05-25T09:21:07.464Z,58.64
2017-05-25T09:22:08.076Z,58.73
2017-05-25T09:23:07.823Z,58.63
2017-05-25T09:24:08.396Z,58.47
2017-05-25T09:25:08.063Z,58.46
2017-05-25T09:26:07.722Z,57.63
2017-05-25T09:27:08.368Z,57.64
2017-05-25T09:28:08.057Z,57.61
2017-05-25T09:29:07.616Z,57.44
2017-05-25T09:30:08.352Z,57.94
2017-05-25T09:31:07.981Z,55.79
2017-05-25T09:32:07.574Z,55.86
2017-05-25T09:33:08.301Z,54.87
2017-05-25T09:34:07.932Z,55.12
2017-05-25T09:35:07.574Z,55.51
2017-05-25T09:36:08.279Z,56.10
2017-05-25T09:37:07.911Z,57.32
2017-05-25T09:38:07.571Z,59.13
2017-05-25T09:39:08.181Z,60.14
2017-05-25T09:40:07.833Z,60.14
2017-05-25T09:41:07.561Z,59.51
2017-05-25T09:42:08.168Z,58.87
2017-05-25T09:43:07.821Z,57.17
2017-05-25T09:44:07.453Z,56.05
2017-05-25T09:45:08.214Z,56.56
2017-05-25T09:46:07.686Z,56.48
2017-05-25T09:47:08.382Z,56.01
2017-05-25T09:48:08.057Z,55.78
2017-05-25T09:49:07.673Z,56.40
2017-05-25T09:50:08.286Z,55.87
2017-05-25T09:51:07.947Z,55.89
2017-05-25T09:52:07.606Z,56.16
2017-05-25T09:53:08.275Z,56.72
2017-05-25T09:54:07.875Z,57.03
2017-05-25T09:55:07.515Z,57.05
2017-05-25T09:56:08.255Z,55.23
2017-05-25T09:57:07.826Z,56.07
2017-05-25T09:58:07.924Z,56.02
2017-05-25T09:59:07.622Z,56.28
2017-05-25T10:00:08.184Z,55.97
2017-05-25T10:01:07.826Z,55.90
2017-05-25T10:02:07.486Z,55.27
2017-05-25T10:03:08.196Z,55.23
2017-05-25T10:04:07.785Z,55.23
2017-05-25T10:05:07.438Z,55.02
2017-05-25T10:06:08.099Z,55.07
2017-05-25T10:07:07.685Z,54.59
2017-05-25T10:08:08.410Z,54.65
2017-05-25T10:09:08.020Z,55.03
2017-05-25T10:10:07.687Z,54.78
2017-05-25T10:11:08.411Z,54.44
2017-05-25T10:12:08.053Z,54.59
2017-05-25T10:13:07.788Z,54.59
2017-05-25T10:14:08.402Z,54.64
2017-05-25T10:15:08.167Z,54.64
2017-05-25T10:16:07.636Z,53.27
2017-05-25T10:17:08.386Z,53.32
2017-05-25T10:18:08.436Z,53.34
2017-05-25T10:19:07.700Z,53.82
2017-05-25T10:20:08.404Z,54.64
2017-05-25T10:21:08.033Z,54.05
2017-05-25T10:22:07.660Z,54.23
2017-05-25T10:23:08.353Z,54.15
2017-05-25T10:24:08.010Z,54.44
2017-05-25T10:25:07.623Z,53.32
2017-05-25T10:26:08.277Z,52.47
2017-05-25T10:27:07.957Z,50.88
2017-05-25T10:28:07.734Z,51.04
2017-05-25T10:29:08.350Z,51.20
2017-05-25T10:30:07.997Z,51.29
2017-05-25T10:31:07.606Z,51.25
2017-05-25T10:32:08.234Z,50.74
2017-05-25T10:33:07.913Z,51.00
2017-05-25T10:34:07.583Z,50.98
2017-05-25T10:35:08.236Z,50.99
2017-05-25T10:36:07.879Z,51.37
2017-05-25T10:37:07.506Z,51.48
2017-05-25T10:38:08.222Z,51.05
2017-05-25T10:39:07.762Z,50.87
2017-05-25T10:40:07.423Z,51.18
2017-05-25T10:41:08.117Z,51.42
2017-05-25T10:42:07.780Z,50.28
2017-05-25T10:43:07.988Z,51.00
2017-05-25T10:44:07.621Z,51.52
2017-05-25T10:45:08.385Z,51.25
2017-05-25T10:46:07.920Z,50.34
2017-05-25T10:47:07.560Z,50.15
2017-05-25T10:48:08.265Z,49.91
2017-05-25T10:49:07.909Z,50.17
2017-05-25T10:50:07.435Z,49.47
2017-05-25T10:51:08.141Z,49.34
2017-05-25T10:52:07.835Z,48.93
2017-05-25T10:53:07.518Z,48.27
2017-05-25T10:54:08.157Z,48.78
2017-05-25T10:55:07.701Z,48.90
2017-05-25T10:56:08.413Z,48.78
2017-05-25T10:57:08.020Z,49.17
2017-05-25T10:58:07.686Z,48.76
2017-05-25T10:59:08.277Z,48.07
2017-05-25T11:00:08.012Z,48.53
2017-05-25T11:01:07.564Z,48.67
2017-05-25T11:02:08.254Z,48.33
2017-05-25T11:03:07.991Z,49.02
2017-05-25T11:04:07.593Z,50.27
2017-05-25T11:05:08.244Z,50.13
2017-05-25T11:06:07.906Z,50.25
2017-05-25T11:07:07.551Z,50.54
2017-05-25T11:08:08.263Z,51.18
2017-05-25T11:09:07.843Z,50.76
2017-05-25T11:10:07.534Z,51.02
2017-05-25T11:11:08.176Z,51.61
2017-05-25T11:12:07.797Z,51.10
2017-05-25T11:13:08.003Z,50.93
2017-05-25T11:14:07.746Z,51.23
2017-05-25T11:15:08.486Z,51.06
2017-05-25T11:16:08.013Z,51.98
2017-05-25T11:17:07.669Z,51.87
2017-05-25T11:18:07.503Z,51.68
2017-05-25T11:19:08.059Z,51.86
2017-05-25T11:20:07.692Z,51.60
2017-05-25T11:21:08.386Z,51.80
2017-05-25T11:22:08.031Z,51.24
2017-05-25T11:23:07.728Z,51.37
2017-05-25T11:24:08.385Z,51.73
2017-05-25T11:25:08.037Z,51.64
2017-05-25T11:26:07.691Z,51.73
2017-05-25T11:27:07.935Z,51.81
2017-05-25T11:28:07.521Z,51.96
2017-05-25T11:29:08.128Z,52.05
2017-05-25T11:30:07.792Z,51.94
2017-05-25T11:31:07.423Z,51.91
2017-05-25T11:32:08.109Z,52.09
2017-05-25T11:33:07.738Z,52.55
2017-05-25T11:34:08.373Z,52.93
2017-05-25T11:35:08.031Z,51.64
2017-05-25T11:36:07.683Z,50.92
2017-05-25T11:37:08.336Z,51.17
2017-05-25T11:38:08.018Z,51.25
2017-05-25T11:39:08.169Z,51.30
2017-05-25T11:40:07.824Z,51.13
2017-05-25T11:41:07.502Z,50.21
2017-05-25T11:42:08.429Z,49.46
2017-05-25T11:43:08.022Z,49.03
2017-05-25T11:44:07.635Z,49.00
2017-05-25T11:45:08.409Z,49.61
2017-05-25T11:46:07.955Z,50.13
2017-05-25T11:47:07.600Z,50.10
2017-05-25T11:48:08.284Z,50.33
2017-05-25T11:49:07.932Z,49.76
2017-05-25T11:50:08.206Z,49.79
2017-05-25T11:51:07.928Z,49.55
2017-05-25T11:52:07.556Z,50.22
2017-05-25T11:53:08.264Z,49.35
2017-05-25T11:54:07.893Z,49.53
2017-05-25T11:55:07.565Z,49.45
2017-05-25T11:56:08.181Z,49.52
2017-05-25T11:57:08.239Z,50.02
2017-05-25T11:58:08.159Z,49.77
2017-05-25T11:59:07.758Z,49.87
2017-05-25T12:00:07.393Z,49.59
2017-05-25T12:01:08.070Z,49.79
2017-05-25T12:02:07.704Z,50.23
2017-05-25T12:03:08.393Z,50.18
2017-05-25T12:04:08.033Z,49.95
2017-05-25T12:05:07.649Z,49.44
2017-05-25T12:06:08.319Z,49.73
2017-05-25T12:07:08.007Z,50.02
2017-05-25T12:08:07.750Z,50.13
2017-05-25T12:09:08.339Z,49.63
2017-05-25T12:10:07.970Z,49.83
2017-05-25T12:11:07.689Z,49.99
2017-05-25T12:12:08.445Z,49.72
2017-05-25T12:13:07.693Z,49.80
2017-05-25T12:14:08.295Z,49.80
2017-05-25T12:15:08.033Z,49.82
2017-05-25T12:16:07.596Z,50.25
2017-05-25T12:17:08.341Z,50.50
2017-05-25T12:18:08.089Z,50.74
2017-05-25T12:19:07.673Z,49.88
2017-05-25T12:20:08.335Z,50.21
2017-05-25T12:21:08.040Z,50.66
2017-05-25T12:22:07.673Z,50.44
2017-05-25T12:23:08.362Z,50.36
2017-05-25T12:24:07.951Z,50.19
2017-05-25T12:25:07.645Z,50.27
2017-05-25T12:26:08.317Z,50.57
2017-05-25T12:27:07.936Z,50.84
2017-05-25T12:28:07.782Z,51.75
2017-05-25T12:29:08.321Z,51.58
2017-05-25T12:30:07.949Z,51.92
2017-05-25T12:31:07.638Z,52.31
2017-05-25T12:32:08.249Z,50.95
2017-05-25T12:33:07.965Z,50.11
2017-05-25T12:34:07.570Z,49.95
2017-05-25T12:35:08.202Z,50.27
2017-05-25T12:36:07.841Z,50.80
2017-05-25T12:37:07.509Z,51.25
2017-05-25T12:38:08.240Z,50.62
2017-05-25T12:39:07.837Z,50.25
2017-05-25T12:40:07.461Z,50.80
2017-05-25T12:41:08.111Z,50.46
2017-05-25T12:42:07.815Z,50.48
2017-05-25T12:43:07.716Z,50.16
2017-05-25T12:44:08.245Z,49.66
2017-05-25T12:45:08.034Z,49.50
2017-05-25T12:46:07.549Z,49.03
2017-05-25T12:47:08.228Z,48.48
2017-05-25T12:48:07.900Z,48.79
2017-05-25T12:49:07.446Z,48.99
2017-05-25T12:50:08.196Z,49.83
2017-05-25T12:51:07.705Z,49.93
2017-05-25T12:52:08.386Z,50.10